PLT4341 SBJV-SBGR
Flight info
| Callsign | PLT4341 |
|---|---|
| Flight time | 0h 38m |
| Altitude | 37000 |
| Route | ASGOL UZ121 BUXUK |
| Aircraft | A320/M-SDE3FGHIRWY/LB1 |
Departure
| Time | 2026-05-03 23:25 |
|---|---|
| Airport | Lauro Carneiro de Loyola Airport (SBJV) |
Arrival
| Time | 2026-05-04 00:04 |
|---|---|
| Airport | São Paulo/Guarulhos–Governor André Franco Montoro International Airport (SBGR) |
| Time | Latitude | Longitude | Altitude | Speed | Heading |
|---|---|---|---|---|---|
| 2026-05-03 23:10 | -26.22351 | -48.80243 | 21 ft | 0 kts | 128° |
| 2026-05-03 23:18 | -26.22339 | -48.80261 | 23 ft | 4 kts | 118° |
| 2026-05-03 23:18 | -26.22331 | -48.80288 | 23 ft | 4 kts | 85° |
| 2026-05-03 23:19 | -26.22337 | -48.80308 | 24 ft | 1 kts | 38° |
| 2026-05-03 23:19 | -26.22338 | -48.80309 | 24 ft | 0 kts | 38° |
| 2026-05-03 23:21 | -26.22335 | -48.80306 | 23 ft | 4 kts | 37° |
| 2026-05-03 23:21 | -26.22294 | -48.80272 | 21 ft | 7 kts | 42° |
| 2026-05-03 23:21 | -26.22291 | -48.80212 | 21 ft | 13 kts | 118° |
| 2026-05-03 23:21 | -26.22334 | -48.80128 | 21 ft | 12 kts | 100° |
| 2026-05-03 23:22 | -26.22306 | -48.80010 | 23 ft | 6 kts | 26° |
| 2026-05-03 23:22 | -26.22290 | -48.79995 | 24 ft | 1 kts | 60° |
| 2026-05-03 23:22 | -26.22290 | -48.79985 | 27 ft | 9 kts | 89° |
| 2026-05-03 23:23 | -26.22382 | -48.79824 | 23 ft | 30 kts | 128° |
| 2026-05-03 23:23 | -26.22509 | -48.79642 | 23 ft | 31 kts | 123° |
| 2026-05-03 23:23 | -26.22647 | -48.79453 | 23 ft | 32 kts | 128° |
| 2026-05-03 23:23 | -26.22784 | -48.79259 | 25 ft | 32 kts | 128° |
| 2026-05-03 23:24 | -26.22894 | -48.79161 | 28 ft | 8 kts | 168° |
| 2026-05-03 23:24 | -26.22902 | -48.79125 | 26 ft | 4 kts | 60° |
| 2026-05-03 23:24 | -26.22876 | -48.79122 | 26 ft | 5 kts | 335° |
| 2026-05-03 23:24 | -26.22864 | -48.79154 | 30 ft | 4 kts | 293° |
| 2026-05-03 23:25 | -26.22851 | -48.79177 | 25 ft | 15 kts | 303° |
| 2026-05-03 23:25 | -26.22591 | -48.79536 | 23 ft | 105 kts | 309° |
| 2026-05-03 23:25 | -26.21991 | -48.80346 | 305 ft | 147 kts | 310° |
| 2026-05-03 23:25 | -26.21337 | -48.81221 | 1111 ft | 149 kts | 309° |
| 2026-05-03 23:26 | -26.20658 | -48.82178 | 1814 ft | 166 kts | 309° |
| 2026-05-03 23:26 | -26.19730 | -48.82995 | 2250 ft | 181 kts | 346° |
| 2026-05-03 23:26 | -26.18435 | -48.82924 | 2552 ft | 197 kts | 26° |
| 2026-05-03 23:26 | -26.17222 | -48.82095 | 2977 ft | 213 kts | 34° |
| 2026-05-03 23:27 | -26.15978 | -48.81200 | 3873 ft | 212 kts | 33° |
| 2026-05-03 23:27 | -26.14733 | -48.80315 | 4782 ft | 213 kts | 33° |
| 2026-05-03 23:27 | -26.13478 | -48.79424 | 5597 ft | 216 kts | 31° |
| 2026-05-03 23:27 | -26.12186 | -48.78508 | 6327 ft | 224 kts | 30° |
| 2026-05-03 23:28 | -26.10848 | -48.77559 | 7019 ft | 231 kts | 30° |
| 2026-05-03 23:28 | -26.09479 | -48.76589 | 7744 ft | 236 kts | 30° |
| 2026-05-03 23:28 | -26.08078 | -48.75596 | 8487 ft | 242 kts | 30° |
| 2026-05-03 23:28 | -26.06644 | -48.74581 | 9242 ft | 247 kts | 30° |
| 2026-05-03 23:29 | -26.05177 | -48.73545 | 9986 ft | 252 kts | 30° |
| 2026-05-03 23:29 | -26.03681 | -48.72489 | 10676 ft | 257 kts | 30° |
| 2026-05-03 23:29 | -26.02156 | -48.71418 | 11391 ft | 260 kts | 27° |
| 2026-05-03 23:29 | -26.00482 | -48.70637 | 11973 ft | 268 kts | 11° |
| 2026-05-03 23:30 | -25.98583 | -48.70184 | 12255 ft | 291 kts | 8° |
| 2026-05-03 23:30 | -25.96520 | -48.69717 | 12517 ft | 315 kts | 9° |
| 2026-05-03 23:30 | -25.94289 | -48.69212 | 12749 ft | 338 kts | 9° |
| 2026-05-03 23:30 | -25.91906 | -48.68668 | 12980 ft | 359 kts | 9° |
| 2026-05-03 23:31 | -25.89428 | -48.68098 | 13558 ft | 367 kts | 9° |
| 2026-05-03 23:31 | -25.86943 | -48.67521 | 14230 ft | 371 kts | 9° |
| 2026-05-03 23:31 | -25.84400 | -48.66929 | 14834 ft | 376 kts | 9° |
| 2026-05-03 23:31 | -25.81826 | -48.66330 | 15431 ft | 380 kts | 8° |
| 2026-05-03 23:32 | -25.79216 | -48.65732 | 16024 ft | 385 kts | 8° |
| 2026-05-03 23:32 | -25.76577 | -48.65130 | 16622 ft | 390 kts | 8° |
| 2026-05-03 23:32 | -25.73902 | -48.64519 | 17222 ft | 395 kts | 7° |
| 2026-05-03 23:32 | -25.71194 | -48.63900 | 17825 ft | 400 kts | 7° |
| 2026-05-03 23:33 | -25.68450 | -48.63263 | 18416 ft | 405 kts | 7° |
| 2026-05-03 23:33 | -25.65678 | -48.62612 | 18928 ft | 409 kts | 7° |
| 2026-05-03 23:33 | -25.62888 | -48.61955 | 19410 ft | 413 kts | 7° |
| 2026-05-03 23:33 | -25.60056 | -48.61290 | 19936 ft | 417 kts | 7° |
| 2026-05-03 23:34 | -25.57199 | -48.60624 | 20465 ft | 421 kts | 6° |
| 2026-05-03 23:34 | -25.54324 | -48.59960 | 21011 ft | 424 kts | 6° |
| 2026-05-03 23:34 | -25.51415 | -48.59293 | 21550 ft | 428 kts | 6° |
| 2026-05-03 23:34 | -25.48485 | -48.58619 | 22072 ft | 432 kts | 6° |
| 2026-05-03 23:35 | -25.45532 | -48.57942 | 22583 ft | 435 kts | 5° |
| 2026-05-03 23:35 | -25.42552 | -48.57260 | 23105 ft | 439 kts | 5° |
| 2026-05-03 23:35 | -25.39551 | -48.56569 | 23562 ft | 442 kts | 5° |
| 2026-05-03 23:35 | -25.36527 | -48.55881 | 24009 ft | 445 kts | 3° |
| 2026-05-03 23:36 | -25.33475 | -48.55535 | 24420 ft | 438 kts | 353° |
| 2026-05-03 23:36 | -25.30414 | -48.55474 | 24850 ft | 440 kts | 353° |
| 2026-05-03 23:36 | -25.27390 | -48.55419 | 25247 ft | 442 kts | 353° |
| 2026-05-03 23:36 | -25.24302 | -48.55363 | 25604 ft | 444 kts | 352° |
| 2026-05-03 23:37 | -25.21205 | -48.55304 | 26017 ft | 446 kts | 352° |
| 2026-05-03 23:37 | -25.18096 | -48.55241 | 26421 ft | 447 kts | 352° |
| 2026-05-03 23:37 | -25.14982 | -48.55179 | 26785 ft | 449 kts | 352° |
| 2026-05-03 23:37 | -25.11853 | -48.55116 | 27139 ft | 450 kts | 352° |
| 2026-05-03 23:38 | -25.08717 | -48.55053 | 27255 ft | 450 kts | 352° |
| 2026-05-03 23:38 | -25.05591 | -48.54993 | 27262 ft | 449 kts | 352° |
| 2026-05-03 23:38 | -25.02456 | -48.54880 | 27263 ft | 454 kts | 356° |
| 2026-05-03 23:38 | -24.99319 | -48.54238 | 27259 ft | 467 kts | 8° |
| 2026-05-03 23:39 | -24.96258 | -48.52898 | 27260 ft | 480 kts | 20° |
| 2026-05-03 23:39 | -24.93317 | -48.51123 | 27264 ft | 483 kts | 21° |
| 2026-05-03 23:39 | -24.90376 | -48.49329 | 27231 ft | 483 kts | 21° |
| 2026-05-03 23:39 | -24.87436 | -48.47537 | 27258 ft | 483 kts | 21° |
| 2026-05-03 23:40 | -24.84491 | -48.45748 | 27259 ft | 483 kts | 21° |
| 2026-05-03 23:40 | -24.81549 | -48.43972 | 27255 ft | 482 kts | 21° |
| 2026-05-03 23:40 | -24.78607 | -48.42198 | 27247 ft | 482 kts | 21° |
| 2026-05-03 23:40 | -24.75666 | -48.40423 | 27249 ft | 482 kts | 21° |
| 2026-05-03 23:41 | -24.72726 | -48.38650 | 27243 ft | 482 kts | 21° |
| 2026-05-03 23:41 | -24.69815 | -48.36899 | 27242 ft | 482 kts | 21° |
| 2026-05-03 23:41 | -24.66873 | -48.35132 | 27239 ft | 482 kts | 21° |
| 2026-05-03 23:41 | -24.63926 | -48.33365 | 27234 ft | 482 kts | 21° |
| 2026-05-03 23:42 | -24.60979 | -48.31600 | 27209 ft | 481 kts | 21° |
| 2026-05-03 23:42 | -24.58048 | -48.29841 | 27215 ft | 482 kts | 21° |
| 2026-05-03 23:42 | -24.55097 | -48.28069 | 27238 ft | 486 kts | 21° |
| 2026-05-03 23:42 | -24.52092 | -48.26269 | 27247 ft | 496 kts | 21° |
| 2026-05-03 23:43 | -24.49025 | -48.24434 | 27255 ft | 506 kts | 21° |
| 2026-05-03 23:43 | -24.45917 | -48.22580 | 27250 ft | 513 kts | 21° |
| 2026-05-03 23:43 | -24.42755 | -48.20700 | 27253 ft | 519 kts | 21° |
| 2026-05-03 23:43 | -24.39580 | -48.18811 | 27252 ft | 521 kts | 22° |
| 2026-05-03 23:44 | -24.36388 | -48.16903 | 27252 ft | 524 kts | 22° |
| 2026-05-03 23:44 | -24.33178 | -48.14975 | 27255 ft | 526 kts | 22° |
| 2026-05-03 23:44 | -24.29958 | -48.13055 | 27245 ft | 528 kts | 21° |
| 2026-05-03 23:44 | -24.26719 | -48.11140 | 27246 ft | 528 kts | 21° |
| 2026-05-03 23:45 | -24.23477 | -48.09236 | 27246 ft | 528 kts | 21° |
| 2026-05-03 23:45 | -24.20239 | -48.07336 | 27243 ft | 528 kts | 21° |
| 2026-05-03 23:45 | -24.17124 | -48.05152 | 27248 ft | 539 kts | 33° |
| 2026-05-03 23:45 | -24.14478 | -48.02197 | 27246 ft | 550 kts | 48° |
| 2026-05-03 23:46 | -24.12289 | -47.98816 | 27239 ft | 552 kts | 51° |
| 2026-05-03 23:46 | -24.10088 | -47.95317 | 27240 ft | 552 kts | 51° |
| 2026-05-03 23:46 | -24.07949 | -47.91882 | 27243 ft | 553 kts | 52° |
| 2026-05-03 23:46 | -24.05788 | -47.88404 | 27246 ft | 553 kts | 52° |
| 2026-05-03 23:47 | -24.03624 | -47.84930 | 27251 ft | 553 kts | 52° |
| 2026-05-03 23:47 | -24.01451 | -47.81453 | 27252 ft | 553 kts | 51° |
| 2026-05-03 23:47 | -23.99279 | -47.77982 | 27256 ft | 553 kts | 51° |
| 2026-05-03 23:47 | -23.97103 | -47.74515 | 27257 ft | 552 kts | 51° |
| 2026-05-03 23:48 | -23.94920 | -47.71049 | 27265 ft | 552 kts | 51° |
| 2026-05-03 23:48 | -23.92749 | -47.67608 | 26816 ft | 547 kts | 52° |
| 2026-05-03 23:48 | -23.90592 | -47.64189 | 25425 ft | 546 kts | 52° |
| 2026-05-03 23:48 | -23.88426 | -47.60770 | 24424 ft | 546 kts | 53° |
| 2026-05-03 23:49 | -23.86302 | -47.57414 | 24146 ft | 527 kts | 53° |
| 2026-05-03 23:49 | -23.84238 | -47.54156 | 23930 ft | 516 kts | 53° |
| 2026-05-03 23:49 | -23.82204 | -47.50948 | 23688 ft | 512 kts | 53° |
| 2026-05-03 23:49 | -23.80193 | -47.47774 | 23146 ft | 505 kts | 53° |
| 2026-05-03 23:50 | -23.78210 | -47.44643 | 22455 ft | 498 kts | 53° |
| 2026-05-03 23:50 | -23.76909 | -47.42588 | 22022 ft | 493 kts | 53° |
| 2026-05-03 23:50 | -23.74347 | -47.38549 | 21193 ft | 483 kts | 53° |
| 2026-05-03 23:50 | -23.72448 | -47.35559 | 20594 ft | 477 kts | 53° |
| 2026-05-03 23:51 | -23.70570 | -47.32603 | 20016 ft | 470 kts | 53° |
| 2026-05-03 23:51 | -23.68818 | -47.29618 | 19531 ft | 464 kts | 62° |
| 2026-05-03 23:51 | -23.67476 | -47.26524 | 19282 ft | 438 kts | 64° |
| 2026-05-03 23:51 | -23.66201 | -47.23607 | 18984 ft | 414 kts | 63° |
| 2026-05-03 23:52 | -23.64981 | -47.20855 | 18609 ft | 395 kts | 63° |
| 2026-05-03 23:52 | -23.64192 | -47.19088 | 18262 ft | 387 kts | 63° |
| 2026-05-03 23:52 | -23.62655 | -47.15646 | 17683 ft | 367 kts | 63° |
| 2026-05-03 23:52 | -23.61562 | -47.13184 | 17220 ft | 355 kts | 63° |
| 2026-05-03 23:53 | -23.60856 | -47.11587 | 16806 ft | 352 kts | 63° |
| 2026-05-03 23:53 | -23.59795 | -47.09181 | 16083 ft | 351 kts | 63° |
| 2026-05-03 23:53 | -23.58757 | -47.06820 | 15697 ft | 339 kts | 63° |
| 2026-05-03 23:53 | -23.57747 | -47.04522 | 15154 ft | 334 kts | 63° |
| 2026-05-03 23:54 | -23.56744 | -47.02244 | 14485 ft | 333 kts | 63° |
| 2026-05-03 23:54 | -23.55733 | -46.99955 | 13666 ft | 336 kts | 63° |
| 2026-05-03 23:54 | -23.54710 | -46.97642 | 12622 ft | 342 kts | 63° |
| 2026-05-03 23:54 | -23.53684 | -46.95317 | 12012 ft | 334 kts | 63° |
| 2026-05-03 23:55 | -23.52714 | -46.93116 | 11786 ft | 313 kts | 63° |
| 2026-05-03 23:55 | -23.51787 | -46.91015 | 11388 ft | 302 kts | 63° |
| 2026-05-03 23:55 | -23.50894 | -46.88990 | 10985 ft | 292 kts | 63° |
| 2026-05-03 23:55 | -23.50035 | -46.87040 | 10739 ft | 277 kts | 62° |
| 2026-05-03 23:56 | -23.49214 | -46.85181 | 10360 ft | 269 kts | 63° |
| 2026-05-03 23:56 | -23.48406 | -46.83358 | 9830 ft | 267 kts | 63° |
| 2026-05-03 23:56 | -23.47600 | -46.81546 | 9249 ft | 265 kts | 63° |
| 2026-05-03 23:56 | -23.46797 | -46.79743 | 8676 ft | 263 kts | 63° |
| 2026-05-03 23:57 | -23.46000 | -46.77955 | 8111 ft | 260 kts | 63° |
| 2026-05-03 23:57 | -23.45223 | -46.76207 | 7709 ft | 251 kts | 63° |
| 2026-05-03 23:57 | -23.44479 | -46.74531 | 7378 ft | 240 kts | 64° |
| 2026-05-03 23:57 | -23.43771 | -46.72927 | 7082 ft | 230 kts | 66° |
| 2026-05-03 23:58 | -23.43380 | -46.71286 | 6657 ft | 227 kts | 87° |
| 2026-05-03 23:58 | -23.43540 | -46.69651 | 6506 ft | 207 kts | 105° |
| 2026-05-03 23:58 | -23.44084 | -46.68309 | 6411 ft | 182 kts | 120° |
| 2026-05-03 23:58 | -23.44766 | -46.67231 | 6272 ft | 165 kts | 123° |
| 2026-05-03 23:59 | -23.45399 | -46.66229 | 5994 ft | 158 kts | 123° |
| 2026-05-03 23:59 | -23.46010 | -46.65251 | 5709 ft | 153 kts | 123° |
| 2026-05-03 23:59 | -23.46580 | -46.64340 | 5555 ft | 140 kts | 123° |
| 2026-05-03 23:59 | -23.47070 | -46.63441 | 5272 ft | 137 kts | 112° |
| 2026-05-04 00:00 | -23.47312 | -46.62448 | 4985 ft | 135 kts | 99° |
| 2026-05-04 00:00 | -23.47191 | -46.61442 | 4751 ft | 137 kts | 66° |
| 2026-05-04 00:00 | -23.46680 | -46.60522 | 4627 ft | 144 kts | 66° |
| 2026-05-04 00:00 | -23.46251 | -46.59569 | 4318 ft | 139 kts | 77° |
| 2026-05-04 00:01 | -23.46189 | -46.58552 | 4098 ft | 135 kts | 96° |
| 2026-05-04 00:01 | -23.46216 | -46.57507 | 3863 ft | 144 kts | 90° |
| 2026-05-04 00:01 | -23.46047 | -46.56406 | 3785 ft | 148 kts | 78° |
| 2026-05-04 00:01 | -23.45723 | -46.55355 | 3768 ft | 145 kts | 72° |
| 2026-05-04 00:02 | -23.45373 | -46.54335 | 3620 ft | 143 kts | 76° |
| 2026-05-04 00:02 | -23.45072 | -46.53305 | 3398 ft | 145 kts | 78° |
| 2026-05-04 00:02 | -23.44818 | -46.52224 | 3212 ft | 148 kts | 77° |
| 2026-05-04 00:02 | -23.44528 | -46.51132 | 2945 ft | 150 kts | 75° |
| 2026-05-04 00:03 | -23.44237 | -46.50057 | 2719 ft | 147 kts | 77° |
| 2026-05-04 00:03 | -23.43960 | -46.49002 | 2525 ft | 140 kts | 77° |
| 2026-05-04 00:03 | -23.43701 | -46.48022 | 2465 ft | 127 kts | 74° |
| 2026-05-04 00:03 | -23.43518 | -46.47350 | 2464 ft | 50 kts | 74° |
| 2026-05-04 00:04 | -23.43483 | -46.47229 | 2465 ft | 7 kts | 71° |
| 2026-05-04 00:04 | -23.43448 | -46.47108 | 2464 ft | 21 kts | 70° |
| 2026-05-04 00:04 | -23.43381 | -46.46962 | 2465 ft | 22 kts | 62° |
| 2026-05-04 00:04 | -23.43278 | -46.46837 | 2465 ft | 23 kts | 45° |
| 2026-05-04 00:05 | -23.43153 | -46.46721 | 2462 ft | 24 kts | 25° |
| 2026-05-04 00:05 | -23.42994 | -46.46751 | 2464 ft | 24 kts | 343° |
| 2026-05-04 00:05 | -23.42826 | -46.46803 | 2462 ft | 26 kts | 340° |
| 2026-05-04 00:05 | -23.42789 | -46.46933 | 2464 ft | 20 kts | 250° |
| 2026-05-04 00:06 | -23.42830 | -46.47084 | 2463 ft | 21 kts | 252° |
| 2026-05-04 00:06 | -23.42874 | -46.47241 | 2462 ft | 22 kts | 254° |
| 2026-05-04 00:06 | -23.42920 | -46.47402 | 2461 ft | 23 kts | 251° |
| 2026-05-04 00:06 | -23.42866 | -46.47473 | 2461 ft | 11 kts | 8° |
| 2026-05-04 00:07 | -23.42837 | -46.47434 | 2461 ft | 5 kts | 71° |
| 2026-05-04 00:07 | -23.42830 | -46.47407 | 2463 ft | 3 kts | 73° |
| 2026-05-04 00:07 | -23.42828 | -46.47400 | 2462 ft | 0 kts | 73° |
| 2026-05-04 00:07 | -23.42826 | -46.47394 | 2461 ft | 0 kts | 73° |